Time;durP1;ratioP1;P1;durP2;ratioP2;P2;SDS_P1;SDS_P2;PMS_P1;PMS_P2;Temp;Humidity;BMP_temperature;BMP_pressure;BME280_temperature;BME280_humidity;BME280_pressure;Samples;Min_cycle;Max_cycle;Signal;HPM_P1;HPM_P2
2021/08/10 00:00:14;;;;;;;7.07;2.75;;;;;;;;;;5074960;28;20028;-74
2021/08/10 00:02:40;;;;;;;3.90;2.20;;;;;;;;;;5076264;28;20060;-73
2021/08/10 00:05:07;;;;;;;7.00;3.10;;;;;;;;;;5075873;28;20070;-73
2021/08/10 00:07:33;;;;;;;7.97;2.58;;;;;;;;;;5076328;28;20028;-72
2021/08/10 00:09:59;;;;;;;4.30;2.42;;;;;;;;;;5075972;28;20025;-73
2021/08/10 00:12:25;;;;;;;8.18;2.63;;;;;;;;;;5075700;28;20495;-73
2021/08/10 00:14:52;;;;;;;3.92;2.58;;;;;;;;;;5075541;28;20040;-72
2021/08/10 00:17:18;;;;;;;5.50;2.53;;;;;;;;;;5075982;28;20024;-72
2021/08/10 00:19:44;;;;;;;7.55;2.72;;;;;;;;;;5076198;28;20381;-73
2021/08/10 00:22:10;;;;;;;4.22;2.28;;;;;;;;;;5075897;28;20033;-73
2021/08/10 00:24:36;;;;;;;6.78;2.33;;;;;;;;;;5075831;28;20021;-72
2021/08/10 00:27:02;;;;;;;7.97;2.40;;;;;;;;;;5075905;28;20031;-73
2021/08/10 00:29:28;;;;;;;9.15;2.78;;;;;;;;;;5075696;28;20338;-72
2021/08/10 00:31:54;;;;;;;6.22;2.40;;;;;;;;;;5075741;28;20029;-73
2021/08/10 00:34:20;;;;;;;8.10;2.30;;;;;;;;;;5075766;28;20024;-73
2021/08/10 00:36:46;;;;;;;3.40;2.28;;;;;;;;;;5075500;28;20095;-73
2021/08/10 00:39:12;;;;;;;9.07;2.50;;;;;;;;;;5074063;28;20033;-72
2021/08/10 00:41:38;;;;;;;6.45;2.65;;;;;;;;;;5075823;28;20111;-72
2021/08/10 00:44:05;;;;;;;5.78;2.42;;;;;;;;;;5075771;28;20021;-72
2021/08/10 00:46:31;;;;;;;4.43;2.30;;;;;;;;;;5075808;28;20029;-73
2021/08/10 00:48:57;;;;;;;5.10;2.58;;;;;;;;;;5075637;28;20021;-73
2021/08/10 00:51:23;;;;;;;5.28;2.30;;;;;;;;;;5075241;28;20111;-72
2021/08/10 00:53:49;;;;;;;3.53;2.30;;;;;;;;;;5075142;28;20033;-73
2021/08/10 00:56:15;;;;;;;5.88;2.47;;;;;;;;;;5075282;28;20377;-72
2021/08/10 00:58:41;;;;;;;4.95;2.17;;;;;;;;;;5074508;28;20048;-72
2021/08/10 01:01:07;;;;;;;6.10;2.60;;;;;;;;;;5074849;28;20073;-72
2021/08/10 01:03:34;;;;;;;5.35;2.35;;;;;;;;;;5074913;28;20104;-72
2021/08/10 01:06:01;;;;;;;6.47;2.75;;;;;;;;;;5074951;28;20456;-72
2021/08/10 01:08:27;;;;;;;8.75;2.20;;;;;;;;;;5074893;28;20500;-72
2021/08/10 01:11:06;;;;;;;9.02;2.75;;;;;;;;;;5074880;28;20036;-72
2021/08/10 01:13:36;;;;;;;4.68;2.25;;;;;;;;;;5072970;28;20029;-72
2021/08/10 01:16:17;;;;;;;7.00;3.15;;;;;;;;;;5075207;28;20028;-72
2021/08/10 01:19:06;;;;;;;4.97;2.70;;;;;;;;;;5074863;28;20021;-72
2021/08/10 01:21:38;;;;;;;7.97;3.10;;;;;;;;;;5064240;28;20043;-72
2021/08/10 01:24:17;;;;;;;7.25;3.00;;;;;;;;;;5074724;28;20027;-73
2021/08/10 01:27:02;;;;;;;5.55;3.00;;;;;;;;;;5074461;28;20047;-72
2021/08/10 01:29:51;;;;;;;4.93;3.08;;;;;;;;;;5074143;28;20024;-73
2021/08/10 01:32:16;;;;;;;4.68;2.78;;;;;;;;;;5074639;28;20021;-72
2021/08/10 01:34:44;;;;;;;9.75;3.30;;;;;;;;;;5074240;28;20028;-72
2021/08/10 01:37:12;;;;;;;9.18;2.90;;;;;;;;;;5073914;28;20506;-72
2021/08/10 01:39:41;;;;;;;8.48;3.42;;;;;;;;;;5074212;28;20020;-72
2021/08/10 01:42:07;;;;;;;6.03;3.50;;;;;;;;;;5074302;28;20050;-72
2021/08/10 01:44:34;;;;;;;9.57;3.40;;;;;;;;;;5073991;28;20099;-73
2021/08/10 01:47:01;;;;;;;7.55;3.58;;;;;;;;;;5073930;28;20052;-74
2021/08/10 01:49:27;;;;;;;6.22;3.00;;;;;;;;;;5073633;28;20049;-73
2021/08/10 01:51:56;;;;;;;7.22;3.17;;;;;;;;;;5073691;28;20039;-73
2021/08/10 01:54:22;;;;;;;4.60;2.60;;;;;;;;;;5072617;28;20024;-72
2021/08/10 01:56:48;;;;;;;5.30;3.40;;;;;;;;;;5074145;28;20032;-72
2021/08/10 01:59:17;;;;;;;7.57;3.03;;;;;;;;;;5073677;28;20028;-73
2021/08/10 02:01:43;;;;;;;6.75;3.22;;;;;;;;;;5073800;28;20094;-73
2021/08/10 02:04:10;;;;;;;5.60;3.05;;;;;;;;;;5073837;28;20024;-73
2021/08/10 02:06:38;;;;;;;5.18;2.85;;;;;;;;;;5073830;28;20033;-73
2021/08/10 02:09:04;;;;;;;5.47;3.60;;;;;;;;;;5074035;28;20020;-73
2021/08/10 02:11:30;;;;;;;7.97;3.13;;;;;;;;;;5073623;28;20176;-73
2021/08/10 02:13:58;;;;;;;5.68;2.97;;;;;;;;;;5073520;28;20040;-73
2021/08/10 02:16:24;;;;;;;5.90;2.75;;;;;;;;;;5073724;28;20028;-73
2021/08/10 02:18:51;;;;;;;8.10;3.35;;;;;;;;;;5073566;28;20036;-73
2021/08/10 02:21:22;;;;;;;4.82;3.00;;;;;;;;;;5073546;28;20101;-73
2021/08/10 02:23:48;;;;;;;6.05;3.38;;;;;;;;;;5073521;28;20506;-73
2021/08/10 02:26:15;;;;;;;5.32;3.17;;;;;;;;;;5073344;28;20025;-73
2021/08/10 02:28:42;;;;;;;6.60;2.75;;;;;;;;;;5073365;28;20506;-74
2021/08/10 02:31:08;;;;;;;6.15;3.00;;;;;;;;;;5073392;28;20029;-73
2021/08/10 02:33:34;;;;;;;7.32;3.50;;;;;;;;;;5073334;28;20025;-73
2021/08/10 02:36:02;;;;;;;6.93;3.10;;;;;;;;;;5073192;28;20036;-73
2021/08/10 02:38:28;;;;;;;7.38;3.08;;;;;;;;;;5073537;28;20029;-73
2021/08/10 02:40:56;;;;;;;7.13;3.03;;;;;;;;;;5073456;28;20024;-73
2021/08/10 02:43:24;;;;;;;10.05;3.47;;;;;;;;;;5073245;28;20101;-73
2021/08/10 02:45:50;;;;;;;7.35;3.20;;;;;;;;;;5073501;28;20028;-74
2021/08/10 02:48:16;;;;;;;7.07;3.10;;;;;;;;;;5073567;28;20025;-74
2021/08/10 02:50:42;;;;;;;5.40;3.33;;;;;;;;;;5073317;28;20044;-73
2021/08/10 02:53:08;;;;;;;6.28;3.42;;;;;;;;;;5073188;28;20024;-73
2021/08/10 02:55:35;;;;;;;7.03;3.58;;;;;;;;;;5073400;28;20069;-72
2021/08/10 02:58:05;;;;;;;6.85;3.22;;;;;;;;;;5071736;28;20024;-73
2021/08/10 03:00:33;;;;;;;6.20;3.13;;;;;;;;;;5073185;28;20150;-72
2021/08/10 03:03:06;;;;;;;7.00;3.13;;;;;;;;;;5076928;28;20024;-72
2021/08/10 03:05:33;;;;;;;6.88;3.05;;;;;;;;;;5076063;28;20504;-72
2021/08/10 03:08:01;;;;;;;5.57;3.00;;;;;;;;;;5077078;28;20028;-73
2021/08/10 03:10:29;;;;;;;8.75;3.15;;;;;;;;;;5077183;28;20043;-73
2021/08/10 03:12:56;;;;;;;10.63;3.53;;;;;;;;;;5077480;28;20369;-73
2021/08/10 03:15:24;;;;;;;6.55;3.17;;;;;;;;;;5076893;28;20060;-73
2021/08/10 03:17:52;;;;;;;14.43;3.10;;;;;;;;;;5077197;28;20358;-72
2021/08/10 03:20:18;;;;;;;6.40;2.70;;;;;;;;;;5077065;28;20063;-72
2021/08/10 03:22:46;;;;;;;9.40;2.97;;;;;;;;;;5076960;28;20028;-73
2021/08/10 03:25:14;;;;;;;6.40;2.67;;;;;;;;;;5077194;28;20111;-72
2021/08/10 03:27:41;;;;;;;6.60;3.05;;;;;;;;;;5077085;28;20017;-74
2021/08/10 03:30:08;;;;;;;3.45;2.88;;;;;;;;;;5076420;28;20067;-72
2021/08/10 03:32:35;;;;;;;5.50;3.00;;;;;;;;;;5076791;28;20488;-72
2021/08/10 03:35:01;;;;;;;8.43;3.50;;;;;;;;;;5076915;28;20029;-72
2021/08/10 03:37:28;;;;;;;11.20;3.45;;;;;;;;;;5075469;28;20051;-73
2021/08/10 03:39:55;;;;;;;7.18;2.92;;;;;;;;;;5076541;28;20027;-73
2021/08/10 03:42:21;;;;;;;11.35;3.22;;;;;;;;;;5076494;28;20112;-73
2021/08/10 03:44:47;;;;;;;9.57;3.38;;;;;;;;;;5076456;28;20044;-73
2021/08/10 03:47:16;;;;;;;6.20;3.55;;;;;;;;;;5076520;28;20468;-73
2021/08/10 03:49:42;;;;;;;5.07;2.90;;;;;;;;;;5076478;28;20025;-73
2021/08/10 03:52:11;;;;;;;7.57;3.42;;;;;;;;;;5076212;28;20044;-73
2021/08/10 03:54:38;;;;;;;5.20;2.78;;;;;;;;;;5058536;28;20025;-72
2021/08/10 03:57:04;;;;;;;8.02;3.17;;;;;;;;;;5076300;28;20117;-74
2021/08/10 03:59:31;;;;;;;5.72;3.67;;;;;;;;;;5076259;28;20017;-73
2021/08/10 04:01:58;;;;;;;8.40;2.88;;;;;;;;;;5076138;28;20473;-73
2021/08/10 04:04:24;;;;;;;6.22;3.13;;;;;;;;;;5076241;28;20013;-73
2021/08/10 04:06:50;;;;;;;11.75;3.63;;;;;;;;;;5076002;28;20035;-74
2021/08/10 04:09:17;;;;;;;7.25;3.58;;;;;;;;;;5075863;28;20116;-73
2021/08/10 04:11:43;;;;;;;5.70;3.30;;;;;;;;;;5075958;28;20040;-74
2021/08/10 04:14:09;;;;;;;9.02;2.97;;;;;;;;;;5075474;28;20071;-74
2021/08/10 04:16:51;;;;;;;4.95;3.17;;;;;;;;;;5076064;28;20032;-72
2021/08/10 04:19:19;;;;;;;7.70;3.80;;;;;;;;;;5076048;28;20115;-73
2021/08/10 04:21:45;;;;;;;4.70;2.92;;;;;;;;;;5075804;28;20649;-73
2021/08/10 04:24:11;;;;;;;6.82;3.50;;;;;;;;;;5075747;28;20032;-73
2021/08/10 04:26:37;;;;;;;9.07;4.43;;;;;;;;;;5075806;28;20104;-73
2021/08/10 04:29:04;;;;;;;6.35;3.13;;;;;;;;;;5075823;28;20111;-72
2021/08/10 04:31:30;;;;;;;5.57;3.40;;;;;;;;;;5075720;28;20056;-72
2021/08/10 04:33:56;;;;;;;7.28;3.35;;;;;;;;;;5075361;28;20085;-73
2021/08/10 04:36:22;;;;;;;6.28;3.35;;;;;;;;;;5075714;28;20037;-73
2021/08/10 04:38:48;;;;;;;14.75;3.58;;;;;;;;;;5075817;28;20021;-73
2021/08/10 04:41:14;;;;;;;9.25;3.58;;;;;;;;;;5075486;28;20029;-73
2021/08/10 04:43:40;;;;;;;9.38;3.60;;;;;;;;;;5075622;28;20032;-74
2021/08/10 04:46:06;;;;;;;8.57;3.03;;;;;;;;;;5075500;28;20028;-73
2021/08/10 04:48:32;;;;;;;5.13;3.25;;;;;;;;;;5075285;28;20025;-74
2021/08/10 04:50:58;;;;;;;12.95;3.28;;;;;;;;;;5075244;28;20420;-74
2021/08/10 04:53:24;;;;;;;4.45;2.83;;;;;;;;;;5073979;28;20056;-73
2021/08/10 04:55:50;;;;;;;9.88;3.00;;;;;;;;;;5075311;28;20029;-73
2021/08/10 04:58:16;;;;;;;8.15;3.17;;;;;;;;;;5075353;28;20032;-72
2021/08/10 05:00:42;;;;;;;5.38;2.83;;;;;;;;;;5074984;28;20391;-73
2021/08/10 05:03:08;;;;;;;5.85;3.00;;;;;;;;;;5075195;28;20067;-72
2021/08/10 05:05:34;;;;;;;8.75;2.88;;;;;;;;;;5074922;28;20052;-72
2021/08/10 05:08:00;;;;;;;6.47;3.25;;;;;;;;;;5074956;28;20032;-72
2021/08/10 05:10:26;;;;;;;8.80;3.00;;;;;;;;;;5074636;28;20043;-73
2021/08/10 05:12:52;;;;;;;6.32;2.85;;;;;;;;;;5074960;28;20025;-72
2021/08/10 05:15:18;;;;;;;4.68;2.65;;;;;;;;;;5074489;28;20095;-72
2021/08/10 05:17:44;;;;;;;5.30;2.83;;;;;;;;;;5074597;28;20025;-73
2021/08/10 05:20:11;;;;;;;5.18;2.78;;;;;;;;;;5073286;28;20415;-73
2021/08/10 05:22:37;;;;;;;6.20;2.45;;;;;;;;;;5074685;28;20021;-74
2021/08/10 05:25:05;;;;;;;8.07;2.78;;;;;;;;;;5074264;28;20102;-74
2021/08/10 05:27:31;;;;;;;9.90;2.90;;;;;;;;;;5074747;28;20020;-75
2021/08/10 05:29:57;;;;;;;10.95;3.08;;;;;;;;;;5074554;28;20488;-74
2021/08/10 05:32:23;;;;;;;9.45;2.67;;;;;;;;;;5074185;28;20503;-75
2021/08/10 05:34:49;;;;;;;7.25;3.10;;;;;;;;;;5074525;28;20453;-75
2021/08/10 05:37:16;;;;;;;5.93;2.70;;;;;;;;;;5074248;28;20056;-74
2021/08/10 05:39:41;;;;;;;5.07;2.20;;;;;;;;;;5074358;28;20032;-74
2021/08/10 05:42:08;;;;;;;6.13;2.50;;;;;;;;;;5074449;28;20024;-75
2021/08/10 05:44:34;;;;;;;6.82;2.50;;;;;;;;;;5074234;28;20484;-74
2021/08/10 05:47:00;;;;;;;4.70;2.58;;;;;;;;;;5072812;28;20342;-75
2021/08/10 05:49:26;;;;;;;4.25;2.38;;;;;;;;;;5074087;28;20418;-73
2021/08/10 05:51:52;;;;;;;12.00;2.88;;;;;;;;;;5074002;28;20552;-75
2021/08/10 05:54:18;;;;;;;6.28;2.70;;;;;;;;;;5074163;28;20025;-75
2021/08/10 05:56:46;;;;;;;8.90;2.33;;;;;;;;;;5074119;28;20029;-74
2021/08/10 05:59:12;;;;;;;7.93;2.70;;;;;;;;;;5073667;28;20017;-75
2021/08/10 06:01:38;;;;;;;6.50;2.70;;;;;;;;;;5073698;28;20535;-74
2021/08/10 06:04:05;;;;;;;8.07;2.50;;;;;;;;;;5073964;28;20024;-74
2021/08/10 06:06:33;;;;;;;5.30;2.55;;;;;;;;;;5074000;28;20372;-75
2021/08/10 06:09:00;;;;;;;4.78;2.30;;;;;;;;;;5073758;28;20051;-74
2021/08/10 06:11:26;;;;;;;37.75;3.65;;;;;;;;;;5073938;28;20154;-74
2021/08/10 06:13:52;;;;;;;11.75;3.33;;;;;;;;;;5073981;28;20111;-75
2021/08/10 06:16:18;;;;;;;3.38;2.28;;;;;;;;;;5073937;28;20060;-74
2021/08/10 06:18:45;;;;;;;5.32;2.55;;;;;;;;;;5073812;28;20417;-73
2021/08/10 06:21:11;;;;;;;6.78;2.63;;;;;;;;;;5073834;28;20346;-73
2021/08/10 06:23:38;;;;;;;9.00;2.75;;;;;;;;;;5072534;28;20032;-72
2021/08/10 06:26:04;;;;;;;7.88;2.55;;;;;;;;;;5073796;28;20047;-71
2021/08/10 06:28:30;;;;;;;8.00;2.90;;;;;;;;;;5074095;28;20063;-71
2021/08/10 06:30:56;;;;;;;5.68;2.22;;;;;;;;;;5073448;28;20035;-71
2021/08/10 06:33:23;;;;;;;6.30;2.63;;;;;;;;;;5073509;28;20108;-71
2021/08/10 06:35:49;;;;;;;8.43;2.75;;;;;;;;;;5073683;28;20020;-71
2021/08/10 06:38:15;;;;;;;8.80;2.58;;;;;;;;;;5073663;28;20021;-71
2021/08/10 06:40:41;;;;;;;9.60;2.95;;;;;;;;;;5073639;28;20074;-71
2021/08/10 06:43:09;;;;;;;9.38;2.60;;;;;;;;;;5073421;28;20032;-71
2021/08/10 06:45:35;;;;;;;5.53;2.60;;;;;;;;;;5072207;28;20119;-70
2021/08/10 06:48:02;;;;;;;6.78;2.55;;;;;;;;;;5073577;28;20033;-71
2021/08/10 06:50:28;;;;;;;4.65;2.78;;;;;;;;;;5073486;28;20033;-72
2021/08/10 06:52:55;;;;;;;3.30;2.30;;;;;;;;;;5073525;28;20488;-72
2021/08/10 06:55:21;;;;;;;6.18;2.78;;;;;;;;;;5073324;28;20028;-71
2021/08/10 06:57:47;;;;;;;4.82;2.35;;;;;;;;;;5073582;28;20099;-72
2021/08/10 07:00:14;;;;;;;9.18;2.95;;;;;;;;;;5073406;28;20170;-72
2021/08/10 07:02:40;;;;;;;4.75;2.60;;;;;;;;;;5073659;28;20094;-73
2021/08/10 07:05:06;;;;;;;6.47;2.65;;;;;;;;;;5073330;28;20031;-74
2021/08/10 07:07:32;;;;;;;6.97;2.40;;;;;;;;;;5073389;28;20025;-73
2021/08/10 07:09:58;;;;;;;9.38;3.65;;;;;;;;;;5073317;28;20074;-73
2021/08/10 07:12:24;;;;;;;5.43;2.20;;;;;;;;;;5073409;28;20111;-71
2021/08/10 07:14:50;;;;;;;5.75;2.72;;;;;;;;;;5073079;28;20102;-73
2021/08/10 07:17:16;;;;;;;5.93;2.60;;;;;;;;;;5073252;28;20020;-73
2021/08/10 07:19:42;;;;;;;6.45;2.25;;;;;;;;;;5073296;28;20032;-74
2021/08/10 07:22:08;;;;;;;5.63;3.50;;;;;;;;;;5073065;28;20024;-74
2021/08/10 07:24:34;;;;;;;8.73;2.80;;;;;;;;;;5073579;28;20513;-74
2021/08/10 07:27:00;;;;;;;4.85;2.65;;;;;;;;;;5073443;28;20032;-73
2021/08/10 07:29:26;;;;;;;7.45;2.60;;;;;;;;;;5073350;28;20024;-73
2021/08/10 07:31:52;;;;;;;4.68;2.45;;;;;;;;;;5073466;28;20028;-76
2021/08/10 07:34:20;;;;;;;6.70;2.55;;;;;;;;;;5073345;28;20107;-75
2021/08/10 07:36:46;;;;;;;3.97;2.10;;;;;;;;;;5073081;28;20417;-73
2021/08/10 07:39:12;;;;;;;5.40;2.30;;;;;;;;;;5072223;28;20032;-72
2021/08/10 07:41:38;;;;;;;3.83;2.33;;;;;;;;;;5071412;28;20016;-76
2021/08/10 07:44:04;;;;;;;5.07;2.45;;;;;;;;;;5073098;28;20035;-69
2021/08/10 07:46:30;;;;;;;5.25;2.40;;;;;;;;;;5072969;28;20353;-69
2021/08/10 07:48:56;;;;;;;4.55;2.63;;;;;;;;;;5075972;28;20142;-70
2021/08/10 07:51:22;;;;;;;5.88;2.30;;;;;;;;;;5076351;28;20071;-69
2021/08/10 07:53:48;;;;;;;4.93;2.42;;;;;;;;;;5075262;28;20484;-69
2021/08/10 07:56:14;;;;;;;4.95;2.30;;;;;;;;;;5076412;28;20031;-70
2021/08/10 07:58:41;;;;;;;4.10;2.22;;;;;;;;;;5076270;28;20020;-69
2021/08/10 08:01:07;;;;;;;3.92;2.30;;;;;;;;;;5076443;28;20499;-69
2021/08/10 08:03:34;;;;;;;6.32;2.55;;;;;;;;;;5076346;28;20036;-70
2021/08/10 08:06:00;;;;;;;6.18;2.20;;;;;;;;;;5076390;28;20025;-70
2021/08/10 08:08:27;;;;;;;5.85;2.53;;;;;;;;;;5076522;28;20495;-69
2021/08/10 08:10:54;;;;;;;11.30;2.25;;;;;;;;;;5075985;28;20055;-70
2021/08/10 08:13:21;;;;;;;6.43;2.42;;;;;;;;;;5075837;28;20384;-69
2021/08/10 08:15:47;;;;;;;8.23;2.60;;;;;;;;;;5076025;28;20088;-70
2021/08/10 08:18:13;;;;;;;5.63;2.10;;;;;;;;;;5076089;28;20027;-69
2021/08/10 08:20:39;;;;;;;6.85;2.15;;;;;;;;;;5076033;28;20044;-70
2021/08/10 08:23:05;;;;;;;12.73;2.67;;;;;;;;;;5076295;28;20034;-70
2021/08/10 08:25:32;;;;;;;8.02;2.45;;;;;;;;;;5075834;28;20028;-69
2021/08/10 08:27:58;;;;;;;8.05;2.60;;;;;;;;;;5075862;28;20021;-70
2021/08/10 08:30:24;;;;;;;4.68;2.47;;;;;;;;;;5075920;28;20032;-69
2021/08/10 08:32:50;;;;;;;5.55;2.40;;;;;;;;;;5075944;28;20427;-69
2021/08/10 08:35:16;;;;;;;3.95;2.30;;;;;;;;;;5074504;28;20119;-69
2021/08/10 08:37:42;;;;;;;9.00;2.20;;;;;;;;;;5075653;28;20484;-69
2021/08/10 08:40:09;;;;;;;9.63;2.47;;;;;;;;;;5074444;28;20465;-69
2021/08/10 08:42:35;;;;;;;5.88;2.40;;;;;;;;;;5075642;28;20070;-69
2021/08/10 08:45:01;;;;;;;8.38;2.80;;;;;;;;;;5075486;28;20027;-69
2021/08/10 08:47:27;;;;;;;6.97;2.45;;;;;;;;;;5075908;28;20033;-70
2021/08/10 08:49:56;;;;;;;7.00;2.65;;;;;;;;;;5075567;28;20029;-70
2021/08/10 08:52:24;;;;;;;8.48;2.42;;;;;;;;;;5075387;28;20028;-70
2021/08/10 08:54:50;;;;;;;10.52;2.45;;;;;;;;;;5075274;28;20036;-69
2021/08/10 08:57:17;;;;;;;4.85;2.13;;;;;;;;;;5075489;28;20021;-69
2021/08/10 08:59:43;;;;;;;9.32;2.75;;;;;;;;;;5074136;28;20036;-69
2021/08/10 09:02:13;;;;;;;3.90;2.10;;;;;;;;;;5075246;28;20029;-69
2021/08/10 09:04:39;;;;;;;5.32;2.47;;;;;;;;;;5075903;28;20040;-70
2021/08/10 09:07:05;;;;;;;11.60;2.33;;;;;;;;;;5075560;28;20048;-69
2021/08/10 09:09:31;;;;;;;5.43;2.85;;;;;;;;;;5074795;28;20067;-69
2021/08/10 09:11:59;;;;;;;5.78;2.15;;;;;;;;;;5075066;28;20029;-69
2021/08/10 09:14:25;;;;;;;5.38;2.30;;;;;;;;;;5074539;28;20049;-69
2021/08/10 09:17:01;;;;;;;8.00;2.17;;;;;;;;;;5074998;28;20038;-70
2021/08/10 09:19:41;;;;;;;5.03;2.30;;;;;;;;;;5075103;28;20464;-69
2021/08/10 09:22:17;;;;;;;5.05;2.35;;;;;;;;;;5073977;28;20024;-70
2021/08/10 09:24:48;;;;;;;4.43;2.38;;;;;;;;;;5073922;28;20063;-70
2021/08/10 09:27:26;;;;;;;3.40;2.40;;;;;;;;;;5073399;28;20046;-70
2021/08/10 09:29:53;;;;;;;3.10;2.33;;;;;;;;;;5073577;28;20086;-69
2021/08/10 09:32:19;;;;;;;5.65;2.00;;;;;;;;;;5073681;28;20469;-69
2021/08/10 09:34:45;;;;;;;5.93;2.17;;;;;;;;;;5073547;28;20131;-70
2021/08/10 09:37:17;;;;;;;5.65;2.60;;;;;;;;;;5073678;28;20090;-69
2021/08/10 09:39:44;;;;;;;4.38;2.28;;;;;;;;;;5073618;28;20090;-69
2021/08/10 09:42:12;;;;;;;7.50;2.60;;;;;;;;;;5073535;28;20481;-69
2021/08/10 09:44:40;;;;;;;7.43;2.17;;;;;;;;;;5073243;28;20025;-70
2021/08/10 09:47:07;;;;;;;6.28;2.33;;;;;;;;;;5073085;28;20567;-69
2021/08/10 09:49:46;;;;;;;5.18;2.28;;;;;;;;;;5073210;28;20111;-69
2021/08/10 09:52:23;;;;;;;4.38;2.25;;;;;;;;;;5074003;28;20412;-69
2021/08/10 09:54:49;;;;;;;4.55;2.30;;;;;;;;;;5074329;28;20411;-70
2021/08/10 09:57:15;;;;;;;4.10;2.15;;;;;;;;;;5074116;28;20075;-69
2021/08/10 09:59:43;;;;;;;7.00;2.20;;;;;;;;;;5073931;28;20033;-69
2021/08/10 10:02:17;;;;;;;4.78;2.40;;;;;;;;;;5074049;28;20020;-69
2021/08/10 10:04:49;;;;;;;5.05;2.08;;;;;;;;;;5074143;28;20028;-70
2021/08/10 10:07:15;;;;;;;5.32;2.10;;;;;;;;;;5073933;28;20027;-69
2021/08/10 10:09:42;;;;;;;5.88;2.55;;;;;;;;;;5074089;28;20121;-71
2021/08/10 10:12:08;;;;;;;4.45;2.10;;;;;;;;;;5073595;28;20051;-69
2021/08/10 10:14:34;;;;;;;7.32;2.38;;;;;;;;;;5073478;28;20068;-69
2021/08/10 10:17:00;;;;;;;3.67;2.30;;;;;;;;;;5073912;28;20384;-69
2021/08/10 10:19:27;;;;;;;4.75;2.13;;;;;;;;;;5073867;28;20017;-69
2021/08/10 10:21:55;;;;;;;4.43;2.20;;;;;;;;;;5074162;28;20016;-69
2021/08/10 10:24:22;;;;;;;7.60;2.22;;;;;;;;;;5073222;28;20021;-70
2021/08/10 10:26:51;;;;;;;6.43;2.20;;;;;;;;;;5073875;28;20067;-70
2021/08/10 10:29:17;;;;;;;4.47;2.00;;;;;;;;;;5073787;28;20419;-70
2021/08/10 10:31:43;;;;;;;7.22;2.10;;;;;;;;;;5073747;28;20033;-69
2021/08/10 10:34:13;;;;;;;3.95;1.80;;;;;;;;;;5073665;28;20489;-71
2021/08/10 10:36:43;;;;;;;4.95;2.45;;;;;;;;;;5073577;28;20107;-69
2021/08/10 10:39:10;;;;;;;6.18;1.80;;;;;;;;;;5071998;28;20025;-70
2021/08/10 10:41:37;;;;;;;3.80;2.22;;;;;;;;;;5073659;28;20118;-70
2021/08/10 10:44:03;;;;;;;3.40;1.73;;;;;;;;;;5073282;28;20032;-71
2021/08/10 10:46:33;;;;;;;9.02;1.90;;;;;;;;;;5073202;28;20043;-72
2021/08/10 10:49:00;;;;;;;5.82;2.00;;;;;;;;;;5073346;28;20025;-71
2021/08/10 10:51:28;;;;;;;5.65;2.35;;;;;;;;;;5073005;28;20500;-69
2021/08/10 10:54:14;;;;;;;6.22;2.17;;;;;;;;;;5073312;28;20478;-71
2021/08/10 10:56:40;;;;;;;4.70;2.05;;;;;;;;;;5073458;28;20051;-70
2021/08/10 10:59:29;;;;;;;9.38;2.17;;;;;;;;;;5073260;28;20107;-70
2021/08/10 11:02:18;;;;;;;9.07;2.00;;;;;;;;;;5070328;28;20029;-69
2021/08/10 11:05:03;;;;;;;10.27;2.17;;;;;;;;;;5070300;28;20112;-70
2021/08/10 11:07:37;;;;;;;10.65;2.20;;;;;;;;;;5073349;28;20406;-70
2021/08/10 11:10:22;;;;;;;10.93;2.13;;;;;;;;;;5073296;28;20043;-70
2021/08/10 11:12:48;;;;;;;5.38;2.28;;;;;;;;;;5073250;28;20029;-70
2021/08/10 11:15:14;;;;;;;9.43;2.33;;;;;;;;;;5073099;28;20048;-69
2021/08/10 11:17:40;;;;;;;7.55;2.38;;;;;;;;;;5073711;28;20047;-70
2021/08/10 11:20:23;;;;;;;5.47;2.00;;;;;;;;;;5073056;28;20024;-70
2021/08/10 11:22:49;;;;;;;4.07;2.30;;;;;;;;;;5074401;28;20086;-69
2021/08/10 11:25:23;;;;;;;6.15;2.28;;;;;;;;;;5077127;28;20099;-70
2021/08/10 11:27:49;;;;;;;6.38;2.10;;;;;;;;;;5077206;28;20028;-69
2021/08/10 11:30:21;;;;;;;4.45;1.90;;;;;;;;;;5076750;28;20036;-69
2021/08/10 11:32:48;;;;;;;7.18;1.80;;;;;;;;;;5076894;28;20024;-69
2021/08/10 11:35:24;;;;;;;8.77;2.10;;;;;;;;;;5076884;28;20440;-69
2021/08/10 11:38:09;;;;;;;6.47;2.00;;;;;;;;;;5076751;28;20036;-69
2021/08/10 11:40:51;;;;;;;8.35;2.05;;;;;;;;;;5076859;28;20021;-70
2021/08/10 11:43:17;;;;;;;9.68;2.25;;;;;;;;;;5076810;28;20435;-69
2021/08/10 11:45:43;;;;;;;4.68;2.25;;;;;;;;;;5076577;28;20036;-69
2021/08/10 11:48:09;;;;;;;7.15;1.88;;;;;;;;;;5076641;28;20024;-69
2021/08/10 11:50:36;;;;;;;8.43;2.05;;;;;;;;;;5076402;28;20503;-71
2021/08/10 11:53:03;;;;;;;7.15;1.88;;;;;;;;;;5076532;28;20055;-70
2021/08/10 11:55:32;;;;;;;4.63;2.08;;;;;;;;;;5077052;28;20477;-70
2021/08/10 11:58:00;;;;;;;3.30;2.20;;;;;;;;;;5076395;28;20074;-70
2021/08/10 12:00:27;;;;;;;6.55;1.88;;;;;;;;;;5076317;28;20028;-70
2021/08/10 12:02:53;;;;;;;4.68;2.15;;;;;;;;;;5076664;28;20025;-68
2021/08/10 12:05:19;;;;;;;8.70;2.20;;;;;;;;;;5076356;28;20510;-69
2021/08/10 12:07:49;;;;;;;6.00;2.13;;;;;;;;;;5076110;28;20028;-68
2021/08/10 12:10:42;;;;;;;7.95;2.38;;;;;;;;;;5076370;28;20111;-73
2021/08/10 12:13:34;;;;;;;5.85;2.10;;;;;;;;;;5075461;28;20108;-68
2021/08/10 12:16:00;;;;;;;7.55;2.10;;;;;;;;;;5075105;28;20494;-69
2021/08/10 12:18:27;;;;;;;6.50;2.42;;;;;;;;;;5076272;28;20469;-69
2021/08/10 12:21:04;;;;;;;6.47;2.03;;;;;;;;;;5075952;28;20032;-69
2021/08/10 12:23:41;;;;;;;9.75;3.25;;;;;;;;;;5076270;28;20487;-69
2021/08/10 12:26:11;;;;;;;4.18;2.58;;;;;;;;;;5076032;28;20028;-69
2021/08/10 12:28:57;;;;;;;7.63;2.22;;;;;;;;;;5075925;28;20020;-68
2021/08/10 12:31:23;;;;;;;5.15;2.10;;;;;;;;;;5076020;28;20044;-69
2021/08/10 12:33:53;;;;;;;6.10;2.20;;;;;;;;;;5075681;28;20036;-69
2021/08/10 12:36:20;;;;;;;6.10;2.20;;;;;;;;;;5075815;28;20481;-68
2021/08/10 12:38:46;;;;;;;9.25;2.30;;;;;;;;;;5075832;28;20021;-68
2021/08/10 12:41:13;;;;;;;6.97;2.05;;;;;;;;;;5075781;28;20170;-69
2021/08/10 12:43:39;;;;;;;7.05;1.95;;;;;;;;;;5075561;28;20081;-70
2021/08/10 12:46:28;;;;;;;8.20;2.40;;;;;;;;;;5075706;28;20412;-70
2021/08/10 12:49:09;;;;;;;4.75;2.20;;;;;;;;;;5075750;28;20150;-68
2021/08/10 12:51:54;;;;;;;5.38;2.17;;;;;;;;;;5075475;28;20494;-68
2021/08/10 12:54:21;;;;;;;7.25;2.17;;;;;;;;;;5075797;28;20032;-68
2021/08/10 12:56:47;;;;;;;4.25;2.08;;;;;;;;;;5075393;28;20051;-70
2021/08/10 12:59:13;;;;;;;7.30;2.40;;;;;;;;;;5075466;28;20468;-69
2021/08/10 13:01:39;;;;;;;5.85;2.17;;;;;;;;;;5075320;28;20487;-68
2021/08/10 13:04:09;;;;;;;11.10;2.42;;;;;;;;;;5075306;28;20056;-69
2021/08/10 13:06:35;;;;;;;7.43;2.33;;;;;;;;;;5075182;28;20025;-69
2021/08/10 13:09:02;;;;;;;6.25;2.22;;;;;;;;;;5075369;28;20063;-69
2021/08/10 13:11:28;;;;;;;5.40;2.30;;;;;;;;;;5073712;28;20385;-69
2021/08/10 13:14:24;;;;;;;5.90;2.25;;;;;;;;;;5074771;28;20127;-69
2021/08/10 13:16:50;;;;;;;3.88;1.92;;;;;;;;;;5068556;28;20032;-69
2021/08/10 13:19:17;;;;;;;7.88;2.53;;;;;;;;;;5074274;28;20103;-69
2021/08/10 13:21:46;;;;;;;4.03;2.35;;;;;;;;;;5074895;28;20044;-68
2021/08/10 13:24:13;;;;;;;11.88;2.40;;;;;;;;;;5074576;28;20025;-69
2021/08/10 13:26:46;;;;;;;14.68;3.13;;;;;;;;;;5074734;28;20104;-70
2021/08/10 13:29:12;;;;;;;4.70;2.10;;;;;;;;;;5074386;28;20035;-69
2021/08/10 13:32:05;;;;;;;7.88;4.07;;;;;;;;;;5074665;28;20037;-69
2021/08/10 13:34:45;;;;;;;6.57;2.42;;;;;;;;;;5073323;28;20047;-69
2021/08/10 13:37:11;;;;;;;4.97;2.23;;;;;;;;;;5074431;28;20040;-68
2021/08/10 13:39:40;;;;;;;5.82;2.35;;;;;;;;;;5075145;28;20258;-69
2021/08/10 13:42:06;;;;;;;8.63;2.20;;;;;;;;;;5074877;28;20021;-69
2021/08/10 13:44:32;;;;;;;7.00;2.47;;;;;;;;;;5074607;28;20403;-69
2021/08/10 13:46:58;;;;;;;6.75;2.58;;;;;;;;;;5073864;28;20025;-69
2021/08/10 13:49:25;;;;;;;6.57;2.15;;;;;;;;;;5074498;28;20075;-69
2021/08/10 13:51:51;;;;;;;4.82;2.10;;;;;;;;;;5074330;28;20033;-69
2021/08/10 13:54:17;;;;;;;5.25;2.45;;;;;;;;;;5074712;28;20058;-69
2021/08/10 13:56:43;;;;;;;8.38;2.28;;;;;;;;;;5074297;28;20031;-69
2021/08/10 13:59:09;;;;;;;7.85;2.30;;;;;;;;;;5074146;28;20028;-68
2021/08/10 14:01:58;;;;;;;8.00;2.50;;;;;;;;;;5074034;28;20115;-69
2021/08/10 14:04:22;;;;;;;6.90;2.08;;;;;;;;;;5073756;28;20036;-69
2021/08/10 14:06:48;;;;;;;3.97;2.33;;;;;;;;;;5074551;28;20085;-69
2021/08/10 14:09:14;;;;;;;5.78;2.17;;;;;;;;;;5074254;28;20036;-69
2021/08/10 14:11:40;;;;;;;6.68;2.88;;;;;;;;;;5073900;28;20038;-69
2021/08/10 14:14:07;;;;;;;4.88;2.03;;;;;;;;;;5073450;28;20068;-69
2021/08/10 14:16:33;;;;;;;3.95;2.40;;;;;;;;;;5073943;28;20024;-69
2021/08/10 14:18:59;;;;;;;6.82;2.30;;;;;;;;;;5073942;28;20028;-69
2021/08/10 14:21:25;;;;;;;8.82;2.25;;;;;;;;;;5073705;28;20025;-69
2021/08/10 14:23:51;;;;;;;6.22;2.20;;;;;;;;;;5073742;28;20373;-69
2021/08/10 14:26:17;;;;;;;9.13;2.60;;;;;;;;;;5073792;28;20047;-69
2021/08/10 14:28:45;;;;;;;8.38;2.17;;;;;;;;;;5072447;28;20422;-69
2021/08/10 14:31:12;;;;;;;7.35;2.40;;;;;;;;;;5073655;28;20033;-71
2021/08/10 14:33:38;;;;;;;9.18;2.97;;;;;;;;;;5073733;28;20024;-69
2021/08/10 14:36:05;;;;;;;9.73;2.33;;;;;;;;;;5073679;28;20104;-68
2021/08/10 14:38:31;;;;;;;6.95;1.90;;;;;;;;;;5073489;28;20198;-68
2021/08/10 14:40:58;;;;;;;10.27;2.00;;;;;;;;;;5072905;28;20021;-68
2021/08/10 14:43:24;;;;;;;5.30;2.13;;;;;;;;;;5073638;28;20036;-68
2021/08/10 14:45:50;;;;;;;7.93;1.95;;;;;;;;;;5073435;28;20108;-68
2021/08/10 14:48:16;;;;;;;5.50;2.20;;;;;;;;;;5072967;28;20048;-67